sensor_id;sensor_type;location;lat;lon;timestamp;pressure;altitude;pressure_sealevel;temperature;humidity
25722;BME280;13578;53.450;15.496;2023-05-09T00:01:11;100837.28;;;7.77;100.00
25722;BME280;13578;53.450;15.496;2023-05-09T00:04:12;100822.44;;;7.82;100.00
25722;BME280;13578;53.450;15.496;2023-05-09T00:07:15;100819.03;;;7.92;100.00
25722;BME280;13578;53.450;15.496;2023-05-09T00:10:15;100820.28;;;7.87;100.00
25722;BME280;13578;53.450;15.496;2023-05-09T00:13:16;100810.53;;;7.97;100.00
25722;BME280;13578;53.450;15.496;2023-05-09T00:16:17;100809.97;;;7.92;100.00
25722;BME280;13578;53.450;15.496;2023-05-09T00:19:19;100806.63;;;7.87;100.00
25722;BME280;13578;53.450;15.496;2023-05-09T00:22:20;100804.16;;;7.82;100.00
25722;BME280;13578;53.450;15.496;2023-05-09T00:25:21;100815.78;;;7.86;100.00
25722;BME280;13578;53.450;15.496;2023-05-09T00:28:21;100804.97;;;7.99;100.00
25722;BME280;13578;53.450;15.496;2023-05-09T00:31:22;100807.13;;;7.93;100.00
25722;BME280;13578;53.450;15.496;2023-05-09T00:34:23;100809.56;;;7.98;100.00
25722;BME280;13578;53.450;15.496;2023-05-09T00:37:24;100808.59;;;7.99;100.00
25722;BME280;13578;53.450;15.496;2023-05-09T00:40:25;100801.38;;;7.98;100.00
25722;BME280;13578;53.450;15.496;2023-05-09T00:43:26;100794.53;;;7.91;100.00
25722;BME280;13578;53.450;15.496;2023-05-09T00:46:27;100793.47;;;7.93;100.00
25722;BME280;13578;53.450;15.496;2023-05-09T00:49:27;100789.94;;;7.91;100.00
25722;BME280;13578;53.450;15.496;2023-05-09T00:52:28;100787.13;;;8.07;100.00
25722;BME280;13578;53.450;15.496;2023-05-09T00:55:30;100789.53;;;7.98;100.00
25722;BME280;13578;53.450;15.496;2023-05-09T00:58:31;100788.16;;;7.90;100.00
25722;BME280;13578;53.450;15.496;2023-05-09T01:01:32;100776.38;;;7.90;100.00
25722;BME280;13578;53.450;15.496;2023-05-09T01:04:33;100770.22;;;7.86;100.00
25722;BME280;13578;53.450;15.496;2023-05-09T01:11:21;100782.22;;;7.84;100.00
25722;BME280;13578;53.450;15.496;2023-05-09T01:14:36;100781.03;;;7.73;100.00
25722;BME280;13578;53.450;15.496;2023-05-09T01:17:56;100788.28;;;7.74;100.00
25722;BME280;13578;53.450;15.496;2023-05-09T01:21:04;100780.09;;;7.89;100.00
25722;BME280;13578;53.450;15.496;2023-05-09T01:30:46;100787.19;;;7.62;100.00
25722;BME280;13578;53.450;15.496;2023-05-09T01:33:55;100794.09;;;7.54;100.00
25722;BME280;13578;53.450;15.496;2023-05-09T01:36:58;100794.94;;;7.40;100.00
25722;BME280;13578;53.450;15.496;2023-05-09T01:40:06;100796.59;;;7.42;100.00
25722;BME280;13578;53.450;15.496;2023-05-09T01:43:08;100788.78;;;7.36;100.00
25722;BME280;13578;53.450;15.496;2023-05-09T01:46:11;100795.78;;;7.26;100.00
25722;BME280;13578;53.450;15.496;2023-05-09T01:49:13;100808.31;;;7.14;100.00
25722;BME280;13578;53.450;15.496;2023-05-09T01:52:16;100798.66;;;7.08;100.00
25722;BME280;13578;53.450;15.496;2023-05-09T01:55:20;100806.72;;;7.10;100.00
25722;BME280;13578;53.450;15.496;2023-05-09T01:58:22;100803.31;;;7.06;100.00
25722;BME280;13578;53.450;15.496;2023-05-09T02:01:25;100801.91;;;7.15;100.00
25722;BME280;13578;53.450;15.496;2023-05-09T02:04:27;100796.72;;;7.10;100.00
25722;BME280;13578;53.450;15.496;2023-05-09T02:07:29;100796.50;;;7.13;100.00
25722;BME280;13578;53.450;15.496;2023-05-09T02:10:31;100794.34;;;7.04;100.00
25722;BME280;13578;53.450;15.496;2023-05-09T02:13:32;100801.91;;;6.99;100.00
25722;BME280;13578;53.450;15.496;2023-05-09T02:16:33;100794.53;;;7.01;100.00
25722;BME280;13578;53.450;15.496;2023-05-09T02:19:35;100796.81;;;7.23;100.00
25722;BME280;13578;53.450;15.496;2023-05-09T02:22:36;100791.16;;;7.12;100.00
25722;BME280;13578;53.450;15.496;2023-05-09T02:25:37;100786.22;;;7.19;100.00
25722;BME280;13578;53.450;15.496;2023-05-09T02:28:39;100779.00;;;7.18;100.00
25722;BME280;13578;53.450;15.496;2023-05-09T02:31:41;100783.59;;;7.01;100.00
25722;BME280;13578;53.450;15.496;2023-05-09T02:34:44;100781.88;;;7.14;100.00
25722;BME280;13578;53.450;15.496;2023-05-09T02:37:44;100783.38;;;7.20;100.00
25722;BME280;13578;53.450;15.496;2023-05-09T02:40:46;100776.31;;;7.16;100.00
25722;BME280;13578;53.450;15.496;2023-05-09T02:43:46;100775.97;;;7.22;100.00
25722;BME280;13578;53.450;15.496;2023-05-09T02:46:47;100769.63;;;7.22;100.00
25722;BME280;13578;53.450;15.496;2023-05-09T02:49:48;100778.22;;;7.30;100.00
25722;BME280;13578;53.450;15.496;2023-05-09T02:52:48;100777.53;;;7.26;100.00
25722;BME280;13578;53.450;15.496;2023-05-09T02:55:49;100778.28;;;7.14;100.00
25722;BME280;13578;53.450;15.496;2023-05-09T02:58:50;100783.22;;;7.07;100.00
25722;BME280;13578;53.450;15.496;2023-05-09T03:01:50;100785.31;;;6.88;100.00
25722;BME280;13578;53.450;15.496;2023-05-09T03:04:51;100777.66;;;6.78;100.00
25722;BME280;13578;53.450;15.496;2023-05-09T03:07:52;100780.56;;;6.59;100.00
25722;BME280;13578;53.450;15.496;2023-05-09T03:10:53;100777.94;;;6.58;100.00
25722;BME280;13578;53.450;15.496;2023-05-09T03:13:54;100785.25;;;6.41;100.00
25722;BME280;13578;53.450;15.496;2023-05-09T03:16:54;100774.78;;;6.33;100.00
25722;BME280;13578;53.450;15.496;2023-05-09T03:19:55;100777.88;;;6.27;100.00
25722;BME280;13578;53.450;15.496;2023-05-09T03:22:56;100771.34;;;6.30;100.00
25722;BME280;13578;53.450;15.496;2023-05-09T03:25:56;100770.44;;;6.29;100.00
25722;BME280;13578;53.450;15.496;2023-05-09T03:28:57;100770.28;;;6.32;100.00
25722;BME280;13578;53.450;15.496;2023-05-09T03:31:58;100771.94;;;6.83;100.00
25722;BME280;13578;53.450;15.496;2023-05-09T03:34:59;100751.47;;;7.51;100.00
25722;BME280;13578;53.450;15.496;2023-05-09T03:37:59;100736.72;;;8.11;100.00
25722;BME280;13578;53.450;15.496;2023-05-09T03:41:00;100732.09;;;8.68;100.00
25722;BME280;13578;53.450;15.496;2023-05-09T03:44:01;100721.94;;;9.11;100.00
25722;BME280;13578;53.450;15.496;2023-05-09T03:47:02;100719.34;;;9.48;100.00
25722;BME280;13578;53.450;15.496;2023-05-09T03:50:03;100716.38;;;9.77;100.00
25722;BME280;13578;53.450;15.496;2023-05-09T03:53:04;100713.09;;;9.97;100.00
25722;BME280;13578;53.450;15.496;2023-05-09T03:56:05;100720.34;;;10.36;100.00
25722;BME280;13578;53.450;15.496;2023-05-09T03:59:05;100718.19;;;10.65;100.00
25722;BME280;13578;53.450;15.496;2023-05-09T04:02:06;100723.63;;;10.78;100.00
25722;BME280;13578;53.450;15.496;2023-05-09T04:05:07;100711.00;;;11.00;100.00
25722;BME280;13578;53.450;15.496;2023-05-09T04:08:07;100703.34;;;11.39;100.00
25722;BME280;13578;53.450;15.496;2023-05-09T04:11:08;100698.41;;;11.67;100.00
25722;BME280;13578;53.450;15.496;2023-05-09T04:14:09;100697.66;;;11.87;100.00
25722;BME280;13578;53.450;15.496;2023-05-09T04:17:10;100680.91;;;11.79;97.54
25722;BME280;13578;53.450;15.496;2023-05-09T04:20:11;100692.63;;;11.47;98.14
25722;BME280;13578;53.450;15.496;2023-05-09T04:23:12;100705.22;;;10.91;100.00
25722;BME280;13578;53.450;15.496;2023-05-09T04:26:12;100719.56;;;10.46;100.00
25722;BME280;13578;53.450;15.496;2023-05-09T04:29:14;100720.94;;;10.15;100.00
25722;BME280;13578;53.450;15.496;2023-05-09T04:32:15;100724.28;;;9.94;100.00
25722;BME280;13578;53.450;15.496;2023-05-09T04:35:16;100728.78;;;9.95;100.00
25722;BME280;13578;53.450;15.496;2023-05-09T04:38:17;100731.72;;;10.05;100.00
25722;BME280;13578;53.450;15.496;2023-05-09T04:41:18;100725.03;;;10.09;100.00
25722;BME280;13578;53.450;15.496;2023-05-09T04:44:19;100730.06;;;10.15;100.00
25722;BME280;13578;53.450;15.496;2023-05-09T04:47:20;100728.97;;;10.18;100.00
25722;BME280;13578;53.450;15.496;2023-05-09T04:50:21;100737.25;;;10.29;100.00
25722;BME280;13578;53.450;15.496;2023-05-09T04:53:22;100729.25;;;10.39;100.00
25722;BME280;13578;53.450;15.496;2023-05-09T04:56:23;100740.84;;;10.56;100.00
25722;BME280;13578;53.450;15.496;2023-05-09T04:59:23;100725.56;;;10.64;100.00
25722;BME280;13578;53.450;15.496;2023-05-09T05:02:24;100726.06;;;10.70;100.00
25722;BME280;13578;53.450;15.496;2023-05-09T05:05:25;100717.88;;;10.81;100.00
25722;BME280;13578;53.450;15.496;2023-05-09T05:08:25;100719.63;;;10.82;100.00
25722;BME280;13578;53.450;15.496;2023-05-09T05:11:26;100732.47;;;11.06;100.00
25722;BME280;13578;53.450;15.496;2023-05-09T05:14:27;100720.84;;;11.02;100.00
25722;BME280;13578;53.450;15.496;2023-05-09T05:17:27;100725.75;;;11.10;100.00
25722;BME280;13578;53.450;15.496;2023-05-09T05:20:28;100728.13;;;11.15;100.00
25722;BME280;13578;53.450;15.496;2023-05-09T05:23:29;100716.31;;;11.25;99.74
25722;BME280;13578;53.450;15.496;2023-05-09T05:26:30;100723.19;;;11.31;100.00
25722;BME280;13578;53.450;15.496;2023-05-09T05:29:30;100707.13;;;11.49;99.19
25722;BME280;13578;53.450;15.496;2023-05-09T05:32:31;100697.25;;;11.47;96.84
25722;BME280;13578;53.450;15.496;2023-05-09T05:35:32;100706.00;;;11.52;98.11
25722;BME280;13578;53.450;15.496;2023-05-09T05:38:32;100702.13;;;11.54;96.36
25722;BME280;13578;53.450;15.496;2023-05-09T05:41:33;100700.38;;;11.53;95.45
25722;BME280;13578;53.450;15.496;2023-05-09T05:44:34;100720.75;;;11.73;99.93
25722;BME280;13578;53.450;15.496;2023-05-09T05:47:35;100709.66;;;11.86;97.37
25722;BME280;13578;53.450;15.496;2023-05-09T05:50:36;100686.53;;;11.89;95.29
25722;BME280;13578;53.450;15.496;2023-05-09T05:53:37;100686.00;;;11.95;94.24
25722;BME280;13578;53.450;15.496;2023-05-09T05:56:37;100691.19;;;12.11;93.73
25722;BME280;13578;53.450;15.496;2023-05-09T05:59:38;100683.03;;;12.10;90.76
25722;BME280;13578;53.450;15.496;2023-05-09T06:02:42;100668.16;;;12.23;87.76
25722;BME280;13578;53.450;15.496;2023-05-09T06:05:52;100667.28;;;12.12;86.78
25722;BME280;13578;53.450;15.496;2023-05-09T06:08:53;100666.81;;;12.06;87.36
25722;BME280;13578;53.450;15.496;2023-05-09T06:11:54;100670.50;;;11.94;87.05
25722;BME280;13578;53.450;15.496;2023-05-09T06:14:55;100663.94;;;11.97;87.02
25722;BME280;13578;53.450;15.496;2023-05-09T06:17:56;100655.19;;;12.03;84.29
25722;BME280;13578;53.450;15.496;2023-05-09T06:20:56;100658.16;;;12.11;86.80
25722;BME280;13578;53.450;15.496;2023-05-09T06:23:57;100679.91;;;12.26;88.10
25722;BME280;13578;53.450;15.496;2023-05-09T06:26:58;100649.97;;;12.32;85.67
25722;BME280;13578;53.450;15.496;2023-05-09T06:29:59;100671.72;;;12.47;89.21
25722;BME280;13578;53.450;15.496;2023-05-09T06:32:59;100655.25;;;12.68;86.60
25722;BME280;13578;53.450;15.496;2023-05-09T06:36:00;100679.81;;;12.92;89.20
25722;BME280;13578;53.450;15.496;2023-05-09T06:39:01;100641.38;;;12.91;83.92
25722;BME280;13578;53.450;15.496;2023-05-09T06:42:01;100637.47;;;12.93;83.40
25722;BME280;13578;53.450;15.496;2023-05-09T06:45:02;100638.56;;;13.02;82.77
25722;BME280;13578;53.450;15.496;2023-05-09T06:48:03;100650.63;;;13.11;83.29
25722;BME280;13578;53.450;15.496;2023-05-09T06:51:04;100647.44;;;13.27;83.49
25722;BME280;13578;53.450;15.496;2023-05-09T06:54:04;100632.94;;;13.46;80.00
25722;BME280;13578;53.450;15.496;2023-05-09T06:57:05;100618.16;;;13.35;76.39
25722;BME280;13578;53.450;15.496;2023-05-09T07:00:06;100613.34;;;13.28;76.89
25722;BME280;13578;53.450;15.496;2023-05-09T07:03:07;100621.59;;;13.49;77.80
25722;BME280;13578;53.450;15.496;2023-05-09T07:06:08;100613.06;;;13.52;74.29
25722;BME280;13578;53.450;15.496;2023-05-09T07:09:08;100606.81;;;13.50;75.39
25722;BME280;13578;53.450;15.496;2023-05-09T07:12:09;100603.47;;;13.46;74.36
25722;BME280;13578;53.450;15.496;2023-05-09T07:15:10;100606.03;;;13.69;74.42
25722;BME280;13578;53.450;15.496;2023-05-09T07:18:10;100589.25;;;13.92;72.73
25722;BME280;13578;53.450;15.496;2023-05-09T07:21:11;100598.19;;;14.25;73.71
25722;BME280;13578;53.450;15.496;2023-05-09T07:24:12;100597.22;;;14.45;74.73
25722;BME280;13578;53.450;15.496;2023-05-09T07:27:13;100545.03;;;14.23;65.25
25722;BME280;13578;53.450;15.496;2023-05-09T07:30:13;100559.41;;;14.46;66.71
25722;BME280;13578;53.450;15.496;2023-05-09T07:33:14;100569.59;;;14.45;67.41
25722;BME280;13578;53.450;15.496;2023-05-09T07:36:15;100551.84;;;14.58;65.78
25722;BME280;13578;53.450;15.496;2023-05-09T07:39:16;100545.91;;;14.53;63.13
25722;BME280;13578;53.450;15.496;2023-05-09T07:42:16;100553.63;;;14.69;64.92
25722;BME280;13578;53.450;15.496;2023-05-09T07:45:17;100528.25;;;14.93;62.34
25722;BME280;13578;53.450;15.496;2023-05-09T07:48:18;100520.25;;;15.00;61.33
25722;BME280;13578;53.450;15.496;2023-05-09T07:51:18;100526.16;;;15.15;61.48
25722;BME280;13578;53.450;15.496;2023-05-09T07:54:19;100541.69;;;15.25;63.03
25722;BME280;13578;53.450;15.496;2023-05-09T07:57:19;100520.06;;;15.11;59.86
25722;BME280;13578;53.450;15.496;2023-05-09T08:00:20;100486.31;;;15.07;56.78
25722;BME280;13578;53.450;15.496;2023-05-09T08:03:23;100497.66;;;15.14;57.14
25722;BME280;13578;53.450;15.496;2023-05-09T08:06:24;100494.84;;;15.24;57.03
25722;BME280;13578;53.450;15.496;2023-05-09T08:09:25;100486.09;;;15.29;57.15
25722;BME280;13578;53.450;15.496;2023-05-09T08:12:26;100486.56;;;15.24;55.72
25722;BME280;13578;53.450;15.496;2023-05-09T08:15:26;100486.16;;;15.09;56.46
25722;BME280;13578;53.450;15.496;2023-05-09T08:18:27;100500.78;;;15.29;59.29
25722;BME280;13578;53.450;15.496;2023-05-09T08:21:27;100478.78;;;15.37;56.07
25722;BME280;13578;53.450;15.496;2023-05-09T08:24:28;100492.66;;;15.55;58.51
25722;BME280;13578;53.450;15.496;2023-05-09T08:27:29;100455.38;;;15.60;54.74
25722;BME280;13578;53.450;15.496;2023-05-09T08:30:29;100483.38;;;15.75;57.03
25722;BME280;13578;53.450;15.496;2023-05-09T08:33:30;100468.81;;;15.72;55.20
25722;BME280;13578;53.450;15.496;2023-05-09T08:36:30;100436.25;;;15.66;53.42
25722;BME280;13578;53.450;15.496;2023-05-09T08:39:31;100472.38;;;15.65;57.51
25722;BME280;13578;53.450;15.496;2023-05-09T08:42:36;100467.25;;;15.42;55.41
25722;BME280;13578;53.450;15.496;2023-05-09T08:45:50;100460.19;;;15.30;55.32
25722;BME280;13578;53.450;15.496;2023-05-09T08:48:51;100461.09;;;15.48;56.19
25722;BME280;13578;53.450;15.496;2023-05-09T08:51:54;100464.28;;;15.53;56.77
25722;BME280;13578;53.450;15.496;2023-05-09T08:54:55;100460.91;;;15.60;57.71
25722;BME280;13578;53.450;15.496;2023-05-09T08:57:56;100427.34;;;15.91;55.29
25722;BME280;13578;53.450;15.496;2023-05-09T09:00:58;100427.06;;;15.94;55.83
25722;BME280;13578;53.450;15.496;2023-05-09T09:03:59;100420.56;;;16.03;54.51
25722;BME280;13578;53.450;15.496;2023-05-09T09:07:03;100398.81;;;16.08;51.87
25722;BME280;13578;53.450;15.496;2023-05-09T09:10:06;100414.75;;;16.32;55.83
25722;BME280;13578;53.450;15.496;2023-05-09T09:13:08;100405.13;;;16.45;53.30
25722;BME280;13578;53.450;15.496;2023-05-09T09:16:13;100391.63;;;16.42;53.41
25722;BME280;13578;53.450;15.496;2023-05-09T09:19:19;100406.44;;;16.32;52.31
25722;BME280;13578;53.450;15.496;2023-05-09T09:36:58;100386.25;;;16.66;48.90
25722;BME280;13578;53.450;15.496;2023-05-09T09:39:59;100402.75;;;16.76;52.37
25722;BME280;13578;53.450;15.496;2023-05-09T09:43:00;100383.63;;;16.65;50.66
25722;BME280;13578;53.450;15.496;2023-05-09T09:46:04;100372.41;;;16.66;49.21
25722;BME280;13578;53.450;15.496;2023-05-09T09:49:08;100366.50;;;16.70;49.93
25722;BME280;13578;53.450;15.496;2023-05-09T09:52:08;100363.47;;;16.81;50.63
25722;BME280;13578;53.450;15.496;2023-05-09T09:55:10;100376.66;;;16.87;50.21
25722;BME280;13578;53.450;15.496;2023-05-09T09:58:16;100348.94;;;16.87;50.62
25722;BME280;13578;53.450;15.496;2023-05-09T10:01:17;100394.69;;;16.91;53.26
25722;BME280;13578;53.450;15.496;2023-05-09T10:04:19;100360.72;;;16.89;50.73
25722;BME280;13578;53.450;15.496;2023-05-09T10:07:21;100370.41;;;16.85;51.42
25722;BME280;13578;53.450;15.496;2023-05-09T10:10:26;100336.41;;;16.75;48.30
25722;BME280;13578;53.450;15.496;2023-05-09T10:13:27;100364.69;;;16.87;52.70
25722;BME280;13578;53.450;15.496;2023-05-09T10:16:28;100326.16;;;17.02;48.89
25722;BME280;13578;53.450;15.496;2023-05-09T10:19:29;100355.09;;;16.99;51.76
25722;BME280;13578;53.450;15.496;2023-05-09T10:22:35;100331.56;;;17.11;50.49
25722;BME280;13578;53.450;15.496;2023-05-09T10:25:45;100325.56;;;17.24;51.10
25722;BME280;13578;53.450;15.496;2023-05-09T10:28:47;100335.31;;;17.45;51.41
25722;BME280;13578;53.450;15.496;2023-05-09T10:31:53;100306.00;;;17.42;47.78
25722;BME280;13578;53.450;15.496;2023-05-09T10:35:04;100327.63;;;17.30;50.81
25722;BME280;13578;53.450;15.496;2023-05-09T10:38:06;100350.00;;;17.29;53.10
25722;BME280;13578;53.450;15.496;2023-05-09T10:41:07;100321.72;;;17.34;50.51
25722;BME280;13578;53.450;15.496;2023-05-09T10:44:09;100311.19;;;17.29;49.36
25722;BME280;13578;53.450;15.496;2023-05-09T10:47:10;100333.06;;;17.57;52.10
25722;BME280;13578;53.450;15.496;2023-05-09T10:50:13;100278.63;;;17.64;47.74
25722;BME280;13578;53.450;15.496;2023-05-09T10:53:14;100250.66;;;17.41;46.02
25722;BME280;13578;53.450;15.496;2023-05-09T10:59:37;100267.84;;;17.69;47.39
25722;BME280;13578;53.450;15.496;2023-05-09T11:02:39;100272.03;;;17.65;48.32
25722;BME280;13578;53.450;15.496;2023-05-09T11:05:40;100247.91;;;17.57;47.04
25722;BME280;13578;53.450;15.496;2023-05-09T11:08:41;100262.81;;;17.73;48.35
25722;BME280;13578;53.450;15.496;2023-05-09T11:11:50;100255.00;;;17.93;47.53
25722;BME280;13578;53.450;15.496;2023-05-09T11:14:52;100230.34;;;17.90;46.03
25722;BME280;13578;53.450;15.496;2023-05-09T11:18:08;100225.00;;;17.63;45.24
25722;BME280;13578;53.450;15.496;2023-05-09T11:21:09;100240.44;;;17.66;46.26
25722;BME280;13578;53.450;15.496;2023-05-09T11:24:16;100210.94;;;17.82;44.58
25722;BME280;13578;53.450;15.496;2023-05-09T11:27:24;100201.41;;;17.84;44.26
25722;BME280;13578;53.450;15.496;2023-05-09T11:30:38;100213.69;;;17.90;44.83
25722;BME280;13578;53.450;15.496;2023-05-09T11:33:40;100217.69;;;17.87;45.20
25722;BME280;13578;53.450;15.496;2023-05-09T11:36:46;100201.56;;;17.83;45.60
25722;BME280;13578;53.450;15.496;2023-05-09T11:39:57;100189.63;;;17.99;44.89
25722;BME280;13578;53.450;15.496;2023-05-09T11:42:59;100192.53;;;18.05;45.10
25722;BME280;13578;53.450;15.496;2023-05-09T11:46:01;100174.31;;;18.03;44.09
25722;BME280;13578;53.450;15.496;2023-05-09T11:49:05;100179.53;;;18.06;45.38
25722;BME280;13578;53.450;15.496;2023-05-09T11:52:06;100179.03;;;18.02;45.34
25722;BME280;13578;53.450;15.496;2023-05-09T11:55:11;100176.66;;;18.22;44.83
25722;BME280;13578;53.450;15.496;2023-05-09T11:58:12;100178.06;;;18.27;44.80
25722;BME280;13578;53.450;15.496;2023-05-09T12:01:13;100183.47;;;18.20;46.09
25722;BME280;13578;53.450;15.496;2023-05-09T12:04:13;100116.81;;;18.12;41.94
25722;BME280;13578;53.450;15.496;2023-05-09T12:07:14;100128.44;;;18.15;42.35
25722;BME280;13578;53.450;15.496;2023-05-09T12:10:20;100138.81;;;18.21;43.69
25722;BME280;13578;53.450;15.496;2023-05-09T12:13:22;100158.81;;;18.56;44.17
25722;BME280;13578;53.450;15.496;2023-05-09T12:16:23;100134.28;;;18.29;43.54
25722;BME280;13578;53.450;15.496;2023-05-09T12:19:25;100132.72;;;18.26;43.10
25722;BME280;13578;53.450;15.496;2023-05-09T12:22:26;100122.13;;;18.30;42.66
25722;BME280;13578;53.450;15.496;2023-05-09T12:25:28;100125.41;;;18.33;42.65
25722;BME280;13578;53.450;15.496;2023-05-09T12:28:29;100132.56;;;18.28;43.78
25722;BME280;13578;53.450;15.496;2023-05-09T12:31:30;100107.22;;;18.22;42.62
25722;BME280;13578;53.450;15.496;2023-05-09T12:34:31;100136.22;;;18.28;44.10
25722;BME280;13578;53.450;15.496;2023-05-09T12:37:32;100123.59;;;18.17;44.49
25722;BME280;13578;53.450;15.496;2023-05-09T12:40:33;100131.47;;;18.37;43.66
25722;BME280;13578;53.450;15.496;2023-05-09T12:43:36;100114.56;;;18.47;44.04
25722;BME280;13578;53.450;15.496;2023-05-09T12:46:37;100118.00;;;18.57;44.87
25722;BME280;13578;53.450;15.496;2023-05-09T12:49:38;100102.47;;;18.71;43.16
25722;BME280;13578;53.450;15.496;2023-05-09T12:52:42;100055.06;;;18.41;40.44
25722;BME280;13578;53.450;15.496;2023-05-09T12:55:43;100060.22;;;18.44;40.96
25722;BME280;13578;53.450;15.496;2023-05-09T12:58:51;100075.31;;;18.50;41.80
25722;BME280;13578;53.450;15.496;2023-05-09T13:01:56;100063.94;;;18.36;41.71
25722;BME280;13578;53.450;15.496;2023-05-09T13:05:11;100071.34;;;18.44;42.51
25722;BME280;13578;53.450;15.496;2023-05-09T13:08:12;100075.06;;;18.60;43.16
25722;BME280;13578;53.450;15.496;2023-05-09T13:11:12;100051.53;;;18.47;41.53
25722;BME280;13578;53.450;15.496;2023-05-09T13:14:17;100062.47;;;18.49;42.94
25722;BME280;13578;53.450;15.496;2023-05-09T13:17:18;100040.56;;;18.54;41.94
25722;BME280;13578;53.450;15.496;2023-05-09T13:20:19;100088.81;;;18.61;46.77
25722;BME280;13578;53.450;15.496;2023-05-09T13:23:20;100055.94;;;18.65;43.28
25722;BME280;13578;53.450;15.496;2023-05-09T13:26:21;100079.78;;;18.59;45.33
25722;BME280;13578;53.450;15.496;2023-05-09T13:29:22;100036.28;;;18.43;43.23
25722;BME280;13578;53.450;15.496;2023-05-09T13:32:23;100032.34;;;18.37;43.80
25722;BME280;13578;53.450;15.496;2023-05-09T13:35:24;100031.03;;;18.48;42.61
25722;BME280;13578;53.450;15.496;2023-05-09T13:38:26;100002.16;;;18.57;40.59
25722;BME280;13578;53.450;15.496;2023-05-09T13:41:30;99991.47;;;18.46;39.85
25722;BME280;13578;53.450;15.496;2023-05-09T13:44:32;99984.13;;;18.30;40.04
25722;BME280;13578;53.450;15.496;2023-05-09T13:47:33;99986.66;;;18.40;40.30
25722;BME280;13578;53.450;15.496;2023-05-09T13:50:34;99997.38;;;18.43;41.07
25722;BME280;13578;53.450;15.496;2023-05-09T13:53:35;99992.84;;;18.50;41.46
25722;BME280;13578;53.450;15.496;2023-05-09T13:56:35;99977.84;;;18.51;40.87
25722;BME280;13578;53.450;15.496;2023-05-09T13:59:36;99996.41;;;18.59;41.33
25722;BME280;13578;53.450;15.496;2023-05-09T14:02:37;99955.59;;;18.36;39.61
25722;BME280;13578;53.450;15.496;2023-05-09T14:05:37;99966.38;;;18.54;40.15
25722;BME280;13578;53.450;15.496;2023-05-09T14:08:38;99988.38;;;18.41;41.56
25722;BME280;13578;53.450;15.496;2023-05-09T14:11:39;99984.56;;;18.42;41.63
25722;BME280;13578;53.450;15.496;2023-05-09T14:14:40;99939.69;;;18.30;38.83
25722;BME280;13578;53.450;15.496;2023-05-09T14:17:41;99973.50;;;18.34;41.93
25722;BME280;13578;53.450;15.496;2023-05-09T14:20:42;99959.84;;;18.47;41.37
25722;BME280;13578;53.450;15.496;2023-05-09T14:23:43;99936.38;;;18.50;39.51
25722;BME280;13578;53.450;15.496;2023-05-09T14:26:44;99962.94;;;18.52;41.61
25722;BME280;13578;53.450;15.496;2023-05-09T14:29:45;99952.00;;;18.51;40.65
25722;BME280;13578;53.450;15.496;2023-05-09T14:32:46;99938.66;;;18.46;40.61
25722;BME280;13578;53.450;15.496;2023-05-09T14:35:47;99963.97;;;18.51;42.14
25722;BME280;13578;53.450;15.496;2023-05-09T14:38:48;99928.84;;;18.35;39.87
25722;BME280;13578;53.450;15.496;2023-05-09T14:41:48;99938.25;;;18.34;40.96
25722;BME280;13578;53.450;15.496;2023-05-09T14:44:49;99934.53;;;18.42;40.53
25722;BME280;13578;53.450;15.496;2023-05-09T14:47:50;99933.06;;;18.31;40.37
25722;BME280;13578;53.450;15.496;2023-05-09T14:50:51;99945.03;;;18.32;41.83
25722;BME280;13578;53.450;15.496;2023-05-09T14:53:56;99904.78;;;18.04;40.06
25722;BME280;13578;53.450;15.496;2023-05-09T14:56:57;99925.66;;;18.00;41.08
25722;BME280;13578;53.450;15.496;2023-05-09T14:59:58;99924.78;;;18.00;42.07
25722;BME280;13578;53.450;15.496;2023-05-09T15:02:59;99938.94;;;18.13;42.86
25722;BME280;13578;53.450;15.496;2023-05-09T15:06:00;99914.16;;;18.03;42.04
25722;BME280;13578;53.450;15.496;2023-05-09T15:09:00;99906.75;;;17.96;41.98
25722;BME280;13578;53.450;15.496;2023-05-09T15:12:01;99891.84;;;17.97;42.29
25722;BME280;13578;53.450;15.496;2023-05-09T15:15:16;99902.78;;;17.90;41.55
25722;BME280;13578;53.450;15.496;2023-05-09T15:18:17;99889.81;;;17.82;41.53
25722;BME280;13578;53.450;15.496;2023-05-09T15:21:19;99894.38;;;17.75;42.74
25722;BME280;13578;53.450;15.496;2023-05-09T15:24:20;99886.41;;;17.72;42.23
25722;BME280;13578;53.450;15.496;2023-05-09T15:27:21;99893.69;;;17.73;42.61
25722;BME280;13578;53.450;15.496;2023-05-09T15:30:21;99894.44;;;17.67;42.80
25722;BME280;13578;53.450;15.496;2023-05-09T15:33:22;99865.28;;;17.62;40.93
25722;BME280;13578;53.450;15.496;2023-05-09T15:36:23;99863.03;;;17.66;40.84
25722;BME280;13578;53.450;15.496;2023-05-09T15:39:23;99851.13;;;17.57;41.80
25722;BME280;13578;53.450;15.496;2023-05-09T15:42:25;99861.47;;;17.63;41.11
25722;BME280;13578;53.450;15.496;2023-05-09T15:45:26;99859.81;;;17.54;40.51
25722;BME280;13578;53.450;15.496;2023-05-09T15:48:28;99857.41;;;17.51;41.74
25722;BME280;13578;53.450;15.496;2023-05-09T15:51:28;99862.94;;;17.51;41.70
25722;BME280;13578;53.450;15.496;2023-05-09T15:54:29;99849.44;;;17.48;41.85
25722;BME280;13578;53.450;15.496;2023-05-09T15:57:31;99842.69;;;17.51;42.77
25722;BME280;13578;53.450;15.496;2023-05-09T16:00:31;99859.31;;;17.51;43.88
25722;BME280;13578;53.450;15.496;2023-05-09T16:03:33;99841.59;;;17.52;42.22
25722;BME280;13578;53.450;15.496;2023-05-09T16:06:34;99837.47;;;17.48;42.21